createdAt,value
2018-03-02T00:01:48.318Z,15.53
2018-03-02T00:04:49.537Z,15.30
2018-03-02T00:07:50.754Z,14.43
2018-03-02T00:10:52.040Z,14.80
2018-03-02T00:13:53.986Z,14.90
2018-03-02T00:16:55.924Z,16.07
2018-03-02T00:19:57.116Z,15.77
2018-03-02T00:22:58.340Z,15.30
2018-03-02T00:25:59.552Z,14.73
2018-03-02T00:29:00.780Z,14.90
2018-03-02T00:32:01.982Z,15.00
2018-03-02T00:35:03.189Z,17.03
2018-03-02T00:38:04.400Z,16.47
2018-03-02T00:41:05.648Z,16.37
2018-03-02T00:44:06.896Z,15.50
2018-03-02T00:47:08.114Z,15.83
2018-03-02T00:50:09.293Z,15.70
2018-03-02T00:53:10.480Z,15.90
2018-03-02T00:56:11.711Z,15.77
2018-03-02T00:59:13.669Z,15.17
2018-03-02T01:02:14.876Z,17.83
2018-03-02T01:05:16.101Z,15.50
2018-03-02T01:08:18.025Z,14.27
2018-03-02T01:11:19.264Z,16.57
2018-03-02T01:14:20.471Z,15.63
2018-03-02T01:17:21.702Z,15.70
2018-03-02T01:20:22.892Z,17.73
2018-03-02T01:23:24.105Z,15.50
2018-03-02T01:26:26.068Z,17.27
2018-03-02T01:29:27.299Z,17.80
2018-03-02T01:32:28.520Z,16.63
2018-03-02T01:35:29.721Z,16.73
2018-03-02T01:38:30.921Z,16.40
2018-03-02T01:41:32.887Z,17.50
2018-03-02T01:44:34.108Z,15.67
2018-03-02T01:47:35.369Z,16.70
2018-03-02T01:50:36.556Z,17.57
2018-03-02T01:53:37.772Z,18.07
2018-03-02T01:56:38.975Z,17.00
2018-03-02T01:59:40.161Z,18.40
2018-03-02T02:02:41.384Z,17.37
2018-03-02T02:05:42.603Z,16.90
2018-03-02T02:08:44.545Z,16.43
2018-03-02T02:11:45.725Z,18.97
2018-03-02T02:14:46.988Z,18.10
2018-03-02T02:17:48.189Z,16.73
2018-03-02T02:20:49.392Z,18.33
2018-03-02T02:23:51.557Z,17.33
2018-03-02T02:26:52.732Z,18.40
2018-03-02T02:29:53.933Z,18.20
2018-03-02T02:32:55.956Z,19.03
2018-03-02T02:35:57.157Z,18.87
2018-03-02T02:38:58.392Z,18.23
2018-03-02T02:41:59.569Z,19.47
2018-03-02T02:45:00.788Z,18.53
2018-03-02T02:48:02.011Z,17.13
2018-03-02T02:51:03.223Z,16.97
2018-03-02T02:54:04.443Z,17.27
2018-03-02T02:57:05.652Z,18.83
2018-03-02T03:00:06.867Z,18.00
2018-03-02T03:03:08.833Z,18.90
2018-03-02T03:06:10.038Z,17.17
2018-03-02T03:09:11.255Z,18.10
2018-03-02T03:12:12.469Z,17.90
2018-03-02T03:15:13.692Z,19.67
2018-03-02T03:18:14.931Z,17.47
2018-03-02T03:21:16.133Z,18.17
2018-03-02T03:24:18.092Z,19.27
2018-03-02T03:27:19.299Z,19.57
2018-03-02T03:30:20.489Z,17.63
2018-03-02T03:33:21.681Z,19.13
2018-03-02T03:36:22.895Z,21.20
2018-03-02T03:39:24.088Z,18.37
2018-03-02T03:45:55.276Z,19.67
2018-03-02T03:48:56.484Z,19.33
2018-03-02T03:51:58.414Z,19.83
2018-03-02T03:54:59.637Z,19.90
2018-03-02T03:58:00.844Z,19.93
2018-03-02T04:01:02.068Z,19.80
2018-03-02T04:04:03.292Z,19.53
2018-03-02T04:07:04.477Z,20.60
2018-03-02T04:10:06.440Z,20.23
2018-03-02T04:13:07.652Z,19.80
2018-03-02T04:16:08.868Z,19.60
2018-03-02T04:19:10.801Z,19.67
2018-03-02T04:22:12.083Z,20.90
2018-03-02T04:25:13.267Z,21.93
2018-03-02T04:28:15.236Z,20.73
2018-03-02T04:31:16.434Z,20.50
2018-03-02T04:34:17.632Z,20.30
2018-03-02T04:37:18.836Z,21.43
2018-03-02T04:40:20.040Z,20.87
2018-03-02T04:43:21.376Z,20.57
2018-03-02T04:46:23.303Z,19.57
2018-03-02T04:49:24.512Z,21.73
2018-03-02T04:52:26.464Z,20.83
2018-03-02T04:55:27.661Z,19.03
2018-03-02T04:58:29.627Z,20.60
2018-03-02T05:01:31.549Z,24.27
2018-03-02T05:04:39.771Z,22.60
2018-03-02T05:07:40.990Z,22.63
2018-03-02T05:10:42.917Z,22.83
2018-03-02T05:13:44.117Z,24.47
2018-03-02T05:16:45.319Z,23.50
2018-03-02T05:19:46.577Z,22.97
2018-03-02T05:22:48.502Z,23.83
2018-03-02T05:25:49.720Z,21.07
2018-03-02T05:28:50.931Z,22.07
2018-03-02T05:31:52.148Z,22.13
2018-03-02T05:34:53.356Z,22.47
2018-03-02T05:37:54.623Z,22.23
2018-03-02T05:40:55.828Z,22.37
2018-03-02T05:43:57.757Z,22.67
2018-03-02T05:46:58.938Z,20.70
2018-03-02T05:50:00.164Z,22.97
2018-03-02T05:53:01.377Z,23.33
2018-03-02T05:56:03.328Z,24.07
2018-03-02T05:59:04.540Z,21.87
2018-03-02T06:02:05.729Z,24.00
2018-03-02T06:05:06.921Z,21.90
2018-03-02T06:08:08.164Z,23.80
2018-03-02T06:11:09.361Z,25.90
2018-03-02T06:14:10.611Z,23.10
2018-03-02T06:17:11.836Z,23.33
2018-03-02T06:20:13.048Z,25.77
2018-03-02T06:23:14.269Z,23.30
2018-03-02T06:26:15.476Z,22.07
2018-03-02T06:29:16.684Z,23.33
2018-03-02T06:32:17.924Z,23.97
2018-03-02T06:35:19.128Z,23.20
2018-03-02T06:38:20.328Z,24.23
2018-03-02T06:41:21.656Z,24.30
2018-03-02T06:44:22.873Z,23.80
2018-03-02T06:47:24.831Z,24.43
2018-03-02T06:50:26.784Z,23.60
2018-03-02T06:53:28.020Z,22.27
2018-03-02T06:56:29.221Z,25.13
2018-03-02T06:59:30.448Z,27.50
2018-03-02T07:02:32.190Z,25.17
2018-03-02T07:05:33.405Z,24.27
2018-03-02T07:08:34.659Z,26.00
2018-03-02T07:11:35.888Z,25.30
2018-03-02T07:14:37.105Z,26.70
2018-03-02T07:17:38.327Z,24.73
2018-03-02T07:20:39.579Z,26.23
2018-03-02T07:23:40.795Z,24.07
2018-03-02T07:26:42.032Z,25.27
2018-03-02T07:29:43.480Z,23.87
2018-03-02T07:32:44.727Z,24.20
2018-03-02T07:35:45.928Z,24.33
2018-03-02T07:38:47.144Z,22.90
2018-03-02T07:41:49.069Z,24.80
2018-03-02T07:44:50.282Z,24.83
2018-03-02T07:47:52.237Z,25.30
2018-03-02T07:50:53.444Z,26.20
2018-03-02T07:53:54.634Z,24.57
2018-03-02T07:56:55.829Z,24.30
2018-03-02T07:59:57.016Z,23.33
2018-03-02T08:02:58.240Z,25.27
2018-03-02T08:05:59.439Z,25.63
2018-03-02T08:09:00.672Z,24.70
2018-03-02T08:12:01.992Z,25.63
2018-03-02T08:15:03.206Z,23.53
2018-03-02T08:18:04.405Z,26.23
2018-03-02T08:21:05.597Z,23.90
2018-03-02T08:24:07.022Z,27.17
2018-03-02T08:27:08.256Z,27.87
2018-03-02T08:30:09.458Z,26.97
2018-03-02T08:33:10.698Z,25.10
2018-03-02T08:36:12.630Z,24.67
2018-03-02T08:39:13.829Z,26.73
2018-03-02T08:42:15.073Z,27.53
2018-03-02T08:45:16.282Z,28.83
2018-03-02T08:48:17.486Z,29.27
2018-03-02T08:51:18.689Z,27.33
2018-03-02T08:54:20.637Z,27.07
2018-03-02T08:57:21.840Z,30.47
2018-03-02T09:00:23.052Z,25.00
2018-03-02T09:03:24.265Z,26.03
2018-03-02T09:06:25.471Z,27.60
2018-03-02T09:09:26.669Z,27.10
2018-03-02T09:12:28.868Z,26.03
2018-03-02T09:15:30.093Z,44.80
2018-03-02T09:18:31.300Z,26.30
2018-03-02T09:21:32.536Z,28.27
2018-03-02T09:24:34.591Z,26.60
2018-03-02T09:27:36.578Z,27.10
2018-03-02T09:30:37.786Z,26.50
2018-03-02T09:33:39.016Z,26.80
2018-03-02T09:36:40.213Z,26.53
2018-03-02T09:39:41.417Z,26.60
2018-03-02T09:42:42.685Z,20.63
2018-03-02T09:45:43.848Z,27.30
2018-03-02T09:48:45.037Z,30.10
2018-03-02T09:51:46.973Z,29.73
2018-03-02T09:54:48.184Z,28.37
2018-03-02T09:57:50.172Z,26.97
2018-03-02T10:00:52.132Z,26.70
2018-03-02T10:03:53.532Z,27.97
2018-03-02T10:06:55.036Z,29.47
2018-03-02T10:09:56.284Z,28.90
2018-03-02T10:12:57.524Z,26.43
2018-03-02T10:15:58.796Z,26.90
2018-03-02T10:19:00.395Z,25.70
2018-03-02T10:22:01.722Z,26.43
2018-03-02T10:25:02.929Z,27.83
2018-03-02T10:28:04.162Z,26.80
2018-03-02T10:31:05.361Z,24.87
2018-03-02T10:34:06.565Z,27.47
2018-03-02T10:37:07.823Z,24.60
2018-03-02T10:40:09.753Z,33.80
2018-03-02T10:43:10.949Z,30.07
2018-03-02T10:46:12.900Z,28.53
2018-03-02T10:49:14.150Z,26.67
2018-03-02T10:52:15.353Z,26.30
2018-03-02T10:55:17.306Z,26.90
2018-03-02T10:58:18.516Z,26.07
2018-03-02T11:01:25.669Z,24.97
2018-03-02T11:04:33.078Z,25.43
2018-03-02T11:07:34.300Z,24.77
2018-03-02T11:10:35.514Z,25.27
2018-03-02T11:13:36.771Z,25.40
2018-03-02T11:16:37.965Z,25.50
2018-03-02T11:19:39.910Z,26.13
2018-03-02T11:22:41.140Z,26.00
2018-03-02T11:25:42.343Z,33.47
2018-03-02T11:28:43.645Z,26.50
2018-03-02T11:31:44.865Z,26.10
2018-03-02T11:34:46.090Z,24.60
2018-03-02T11:37:47.316Z,28.67
2018-03-02T11:40:49.245Z,26.23
2018-03-02T11:43:50.445Z,27.63
2018-03-02T11:46:51.641Z,28.43
2018-03-02T11:49:52.829Z,25.50
2018-03-02T11:52:54.034Z,24.80
2018-03-02T11:55:55.993Z,24.40
2018-03-02T11:58:57.220Z,27.10
2018-03-02T12:01:58.412Z,24.90
2018-03-02T12:04:59.632Z,26.33
2018-03-02T12:08:00.849Z,27.40
2018-03-02T12:11:02.065Z,27.03
2018-03-02T12:14:03.278Z,26.70
2018-03-02T12:17:04.486Z,28.70
2018-03-02T12:20:05.720Z,26.23
2018-03-02T12:23:07.657Z,26.07
2018-03-02T12:26:08.871Z,26.70
2018-03-02T12:29:10.084Z,26.50
2018-03-02T12:32:12.054Z,29.10
2018-03-02T12:35:13.285Z,24.60
2018-03-02T12:38:14.481Z,27.13
2018-03-02T12:41:15.669Z,27.67
2018-03-02T12:44:16.887Z,29.00
2018-03-02T12:47:18.093Z,26.67
2018-03-02T12:50:19.285Z,27.00
2018-03-02T12:53:20.528Z,25.10
2018-03-02T12:56:22.612Z,29.03
2018-03-02T12:59:24.546Z,29.27
2018-03-02T13:02:25.773Z,26.47
2018-03-02T13:05:27.037Z,27.70
2018-03-02T13:08:28.245Z,27.77
2018-03-02T13:11:29.445Z,26.03
2018-03-02T13:14:31.403Z,27.23
2018-03-02T13:17:32.593Z,26.40
2018-03-02T13:20:34.968Z,26.30
2018-03-02T13:23:36.608Z,27.97
2018-03-02T13:26:57.248Z,26.87
2018-03-02T13:29:58.496Z,27.10
2018-03-02T13:33:18.337Z,27.83
2018-03-02T13:36:20.378Z,29.20
2018-03-02T13:39:40.081Z,36.23
2018-03-02T13:42:41.320Z,28.97
2018-03-02T13:45:42.526Z,28.67
2018-03-02T13:49:02.988Z,28.77
2018-03-02T13:52:04.198Z,29.17
2018-03-02T13:55:05.528Z,26.40
2018-03-02T13:58:06.788Z,24.33
2018-03-02T14:01:08.098Z,25.30
2018-03-02T14:04:28.547Z,27.07
2018-03-02T14:07:29.745Z,29.27
2018-03-02T14:10:30.954Z,26.73
2018-03-02T14:13:32.240Z,26.40
2018-03-02T14:16:33.441Z,27.20
2018-03-02T14:19:34.669Z,26.27
2018-03-02T14:22:35.960Z,26.13
2018-03-02T14:25:37.161Z,24.30
2018-03-02T14:28:39.125Z,25.97
2018-03-02T14:31:40.741Z,24.90
2018-03-02T14:34:42.021Z,26.87
2018-03-02T14:37:43.234Z,27.00
2018-03-02T14:40:52.035Z,26.77
2018-03-02T14:43:53.969Z,27.50
2018-03-02T14:46:55.155Z,26.60
2018-03-02T14:49:56.436Z,24.10
2018-03-02T14:52:57.655Z,25.07
2018-03-02T14:55:58.905Z,24.10
2018-03-02T14:59:00.876Z,27.90
2018-03-02T15:02:02.845Z,26.93
2018-03-02T15:05:04.050Z,27.50
2018-03-02T15:08:05.305Z,25.93
2018-03-02T15:11:06.654Z,27.00
2018-03-02T15:14:08.609Z,25.17
2018-03-02T15:17:09.879Z,41.60
2018-03-02T15:20:11.116Z,27.13
2018-03-02T15:23:12.336Z,27.93
2018-03-02T15:26:13.561Z,29.47
2018-03-02T15:29:14.765Z,25.83
2018-03-02T15:32:15.957Z,27.57
2018-03-02T15:35:17.177Z,26.70
2018-03-02T15:38:19.199Z,27.63
2018-03-02T15:41:20.417Z,27.43
2018-03-02T15:44:22.396Z,24.20
2018-03-02T15:47:24.362Z,27.00
2018-03-02T15:50:26.341Z,25.73
2018-03-02T15:53:28.336Z,25.57
2018-03-02T15:56:30.284Z,26.13
2018-03-02T15:59:31.481Z,27.77
2018-03-02T16:02:33.478Z,25.80
2018-03-02T16:05:34.670Z,29.83
2018-03-02T16:08:36.637Z,26.27
2018-03-02T16:11:37.843Z,31.37
2018-03-02T16:14:39.041Z,28.53
2018-03-02T16:17:40.271Z,28.57
2018-03-02T16:20:41.470Z,25.90
2018-03-02T16:23:42.675Z,30.80
2018-03-02T16:26:43.884Z,29.00
2018-03-02T16:29:45.140Z,28.60
2018-03-02T16:32:47.097Z,28.33
2018-03-02T16:35:48.287Z,30.43
2018-03-02T16:38:49.473Z,30.97
2018-03-02T16:41:50.660Z,28.80
2018-03-02T16:44:51.864Z,29.77
2018-03-02T16:47:53.820Z,27.70
2018-03-02T16:50:55.081Z,31.07
2018-03-02T16:53:56.336Z,30.60
2018-03-02T16:56:57.547Z,27.73
2018-03-02T16:59:58.771Z,29.80
2018-03-02T17:03:00.008Z,33.93
2018-03-02T17:06:01.256Z,31.80
2018-03-02T17:09:02.554Z,30.33
2018-03-02T17:12:03.737Z,31.37
2018-03-02T17:15:05.693Z,30.70
2018-03-02T17:18:06.908Z,32.80
2018-03-02T17:21:08.135Z,32.40
2018-03-02T17:24:10.094Z,32.97
2018-03-02T17:27:11.312Z,34.50
2018-03-02T17:30:12.521Z,33.90
2018-03-02T17:33:13.751Z,33.87
2018-03-02T17:36:14.960Z,34.73
2018-03-02T17:39:17.185Z,35.60
2018-03-02T17:42:18.381Z,34.37
2018-03-02T17:45:20.334Z,34.53
2018-03-02T17:48:21.631Z,33.40
2018-03-02T17:51:22.835Z,34.57
2018-03-02T17:54:24.412Z,35.10
2018-03-02T17:57:25.644Z,31.33
2018-03-02T18:00:27.619Z,34.23
2018-03-02T18:03:28.848Z,34.67
2018-03-02T18:06:30.170Z,33.97
2018-03-02T18:09:31.424Z,32.07
2018-03-02T18:12:33.436Z,37.03
2018-03-02T18:15:34.635Z,36.63
2018-03-02T18:18:35.852Z,34.97
2018-03-02T18:21:37.151Z,36.07
2018-03-02T18:24:38.429Z,33.50
2018-03-02T18:27:40.349Z,37.80
2018-03-02T18:30:41.564Z,38.80
2018-03-02T18:33:43.259Z,40.53
2018-03-02T18:36:44.438Z,40.30
2018-03-02T18:39:46.420Z,37.30
2018-03-02T18:42:48.360Z,38.70
2018-03-02T18:45:49.557Z,40.20
2018-03-02T18:48:51.510Z,40.60
2018-03-02T18:51:52.873Z,39.20
2018-03-02T18:54:54.125Z,37.27
2018-03-02T18:57:55.376Z,39.37
2018-03-02T19:00:56.609Z,36.90
2018-03-02T19:03:57.825Z,36.50
2018-03-02T19:06:59.052Z,38.17
2018-03-02T19:10:00.465Z,40.97
2018-03-02T19:13:02.758Z,38.90
2018-03-02T19:16:04.912Z,34.93
2018-03-02T19:19:06.432Z,40.03
2018-03-02T19:22:08.189Z,33.97
2018-03-02T19:25:10.210Z,37.13
2018-03-02T19:28:11.458Z,35.27
2018-03-02T19:31:12.987Z,37.43
2018-03-02T19:34:15.220Z,34.90
2018-03-02T19:37:16.730Z,36.57
2018-03-02T19:40:19.019Z,33.90
2018-03-02T19:43:20.414Z,34.50
2018-03-02T19:46:22.380Z,35.87
2018-03-02T19:49:23.963Z,33.23
2018-03-02T19:52:25.185Z,36.20
2018-03-02T19:55:26.405Z,35.10
2018-03-02T19:58:28.027Z,34.67
2018-03-02T20:01:29.540Z,36.83
2018-03-02T20:04:31.103Z,37.90
2018-03-02T20:07:32.710Z,41.13
2018-03-02T20:10:34.290Z,40.30
2018-03-02T20:13:35.865Z,38.00
2018-03-02T20:16:37.401Z,39.13
2018-03-02T20:19:38.681Z,36.30
2018-03-02T20:22:39.961Z,34.97
2018-03-02T20:25:41.171Z,36.00
2018-03-02T20:28:43.217Z,38.00
2018-03-02T20:31:44.428Z,38.37
2018-03-02T20:34:46.408Z,39.17
2018-03-02T20:37:48.346Z,39.07
2018-03-02T20:40:49.718Z,38.17
2018-03-02T20:43:50.960Z,37.20
2018-03-02T20:46:52.177Z,37.10
2018-03-02T20:49:54.145Z,35.27
2018-03-02T20:52:56.107Z,38.67
2018-03-02T20:55:57.305Z,39.17
2018-03-02T20:58:58.532Z,36.90
2018-03-02T21:01:59.725Z,36.07
2018-03-02T21:05:04.946Z,36.07
2018-03-02T21:08:07.336Z,37.43
2018-03-02T21:11:09.568Z,38.93
2018-03-02T21:14:11.064Z,36.20
2018-03-02T21:17:12.582Z,38.23
2018-03-02T21:20:14.168Z,38.73
2018-03-02T21:23:15.477Z,36.50
2018-03-02T21:26:17.953Z,46.60
2018-03-02T21:29:19.185Z,42.50
2018-03-02T21:32:21.000Z,38.80
2018-03-02T21:35:22.357Z,39.90
2018-03-02T21:38:23.921Z,47.60
2018-03-02T21:41:25.289Z,62.80
2018-03-02T21:44:26.560Z,54.63
2018-03-02T21:47:27.821Z,50.10
2018-03-02T21:50:29.589Z,56.90
2018-03-02T21:53:31.523Z,53.10
2018-03-02T21:56:32.851Z,47.37
2018-03-02T21:59:34.060Z,47.90
2018-03-02T22:02:35.997Z,44.87
2018-03-02T22:05:37.225Z,45.03
2018-03-02T22:08:38.441Z,36.77
2018-03-02T22:11:39.742Z,36.03
2018-03-02T22:14:40.957Z,33.40
2018-03-02T22:17:42.172Z,34.73
2018-03-02T22:20:43.376Z,33.33
2018-03-02T22:23:44.676Z,37.90
2018-03-02T22:26:46.640Z,51.00
2018-03-02T22:29:47.875Z,44.23
2018-03-02T22:32:49.034Z,39.47
2018-03-02T22:35:50.267Z,35.03
2018-03-02T22:38:51.480Z,35.60
2018-03-02T22:41:52.770Z,39.20
2018-03-02T22:44:54.727Z,37.63
2018-03-02T22:47:55.928Z,37.10
2018-03-02T22:50:57.187Z,38.30
2018-03-02T22:53:58.401Z,37.53
2018-03-02T22:56:59.616Z,43.23
2018-03-02T23:00:00.808Z,49.77
2018-03-02T23:03:02.028Z,36.67
2018-03-02T23:06:04.032Z,35.17
2018-03-02T23:09:05.229Z,37.97
2018-03-02T23:12:07.165Z,37.27
2018-03-02T23:15:08.404Z,35.97
2018-03-02T23:18:09.575Z,35.30
2018-03-02T23:21:11.519Z,36.73
2018-03-02T23:24:12.721Z,54.87
2018-03-02T23:27:13.928Z,43.23
2018-03-02T23:30:15.168Z,51.60
2018-03-02T23:33:16.380Z,42.17
2018-03-02T23:36:17.588Z,42.13
2018-03-02T23:39:18.803Z,39.50
2018-03-02T23:42:19.988Z,43.63
2018-03-02T23:45:21.980Z,39.17
2018-03-02T23:48:23.262Z,38.80
2018-03-02T23:51:25.192Z,44.10
2018-03-02T23:54:26.398Z,38.43
2018-03-02T23:57:27.580Z,40.13
